sensor_id;sensor_type;location;lat;lon;timestamp;P1;durP1;ratioP1;P2;durP2;ratioP2
41219;SDS011;26951;47.338;9.196;2022-12-10T00:01:57;7.03;;;5.90;;
41219;SDS011;26951;47.338;9.196;2022-12-10T00:04:42;7.63;;;5.88;;
41219;SDS011;26951;47.338;9.196;2022-12-10T00:07:26;8.38;;;6.30;;
41219;SDS011;26951;47.338;9.196;2022-12-10T00:10:10;8.80;;;6.72;;
41219;SDS011;26951;47.338;9.196;2022-12-10T00:12:54;8.05;;;6.15;;
41219;SDS011;26951;47.338;9.196;2022-12-10T00:15:39;7.43;;;5.70;;
41219;SDS011;26951;47.338;9.196;2022-12-10T00:18:22;8.75;;;6.28;;
41219;SDS011;26951;47.338;9.196;2022-12-10T00:21:07;8.80;;;7.25;;
41219;SDS011;26951;47.338;9.196;2022-12-10T00:23:55;9.18;;;7.90;;
41219;SDS011;26951;47.338;9.196;2022-12-10T00:26:39;7.97;;;6.20;;
41219;SDS011;26951;47.338;9.196;2022-12-10T00:29:24;8.38;;;6.10;;
41219;SDS011;26951;47.338;9.196;2022-12-10T00:32:08;7.72;;;6.10;;
41219;SDS011;26951;47.338;9.196;2022-12-10T00:34:52;6.40;;;5.47;;
41219;SDS011;26951;47.338;9.196;2022-12-10T00:37:36;7.93;;;6.07;;
41219;SDS011;26951;47.338;9.196;2022-12-10T00:40:21;7.80;;;5.75;;
41219;SDS011;26951;47.338;9.196;2022-12-10T00:43:06;7.43;;;5.55;;
41219;SDS011;26951;47.338;9.196;2022-12-10T00:45:50;8.70;;;6.25;;
41219;SDS011;26951;47.338;9.196;2022-12-10T00:48:34;7.32;;;6.13;;
41219;SDS011;26951;47.338;9.196;2022-12-10T00:51:20;8.13;;;6.25;;
41219;SDS011;26951;47.338;9.196;2022-12-10T00:54:06;7.53;;;6.45;;
41219;SDS011;26951;47.338;9.196;2022-12-10T00:56:51;10.30;;;6.45;;
41219;SDS011;26951;47.338;9.196;2022-12-10T00:59:36;8.82;;;7.13;;
41219;SDS011;26951;47.338;9.196;2022-12-10T01:02:20;7.35;;;6.50;;
41219;SDS011;26951;47.338;9.196;2022-12-10T01:05:04;10.05;;;6.43;;
41219;SDS011;26951;47.338;9.196;2022-12-10T01:07:50;9.75;;;6.93;;
41219;SDS011;26951;47.338;9.196;2022-12-10T01:10:36;9.73;;;7.43;;
41219;SDS011;26951;47.338;9.196;2022-12-10T01:13:20;8.65;;;6.60;;
41219;SDS011;26951;47.338;9.196;2022-12-10T01:16:05;9.13;;;6.68;;
41219;SDS011;26951;47.338;9.196;2022-12-10T01:18:57;10.07;;;7.00;;
41219;SDS011;26951;47.338;9.196;2022-12-10T01:21:42;11.35;;;7.03;;
41219;SDS011;26951;47.338;9.196;2022-12-10T01:24:26;9.43;;;6.63;;
41219;SDS011;26951;47.338;9.196;2022-12-10T01:27:11;9.57;;;6.80;;
41219;SDS011;26951;47.338;9.196;2022-12-10T01:29:55;8.23;;;6.72;;
41219;SDS011;26951;47.338;9.196;2022-12-10T01:32:39;8.80;;;6.55;;
41219;SDS011;26951;47.338;9.196;2022-12-10T01:35:23;7.95;;;6.43;;
41219;SDS011;26951;47.338;9.196;2022-12-10T01:38:07;8.38;;;6.57;;
41219;SDS011;26951;47.338;9.196;2022-12-10T01:40:51;9.18;;;7.20;;
41219;SDS011;26951;47.338;9.196;2022-12-10T01:46:54;8.50;;;7.10;;
41219;SDS011;26951;47.338;9.196;2022-12-10T01:49:41;9.25;;;7.10;;
41219;SDS011;26951;47.338;9.196;2022-12-10T01:52:25;9.60;;;7.20;;
41219;SDS011;26951;47.338;9.196;2022-12-10T01:55:35;9.15;;;7.13;;
41219;SDS011;26951;47.338;9.196;2022-12-10T01:58:23;9.75;;;7.10;;
41219;SDS011;26951;47.338;9.196;2022-12-10T02:07:41;8.05;;;6.35;;
41219;SDS011;26951;47.338;9.196;2022-12-10T02:14:10;9.18;;;7.05;;
41219;SDS011;26951;47.338;9.196;2022-12-10T02:17:05;9.52;;;7.20;;
41219;SDS011;26951;47.338;9.196;2022-12-10T02:19:59;11.32;;;7.82;;
41219;SDS011;26951;47.338;9.196;2022-12-10T02:22:51;9.95;;;7.25;;
41219;SDS011;26951;47.338;9.196;2022-12-10T02:25:51;9.57;;;7.80;;
41219;SDS011;26951;47.338;9.196;2022-12-10T02:31:36;9.68;;;6.95;;
41219;SDS011;26951;47.338;9.196;2022-12-10T02:34:23;9.40;;;7.55;;
41219;SDS011;26951;47.338;9.196;2022-12-10T02:37:12;10.45;;;7.75;;
41219;SDS011;26951;47.338;9.196;2022-12-10T02:40:02;8.73;;;7.05;;
41219;SDS011;26951;47.338;9.196;2022-12-10T02:42:54;9.23;;;7.15;;
41219;SDS011;26951;47.338;9.196;2022-12-10T02:45:38;9.82;;;7.93;;
41219;SDS011;26951;47.338;9.196;2022-12-10T02:48:24;10.70;;;6.35;;
41219;SDS011;26951;47.338;9.196;2022-12-10T02:51:09;11.35;;;7.47;;
41219;SDS011;26951;47.338;9.196;2022-12-10T02:53:59;10.23;;;8.15;;
41219;SDS011;26951;47.338;9.196;2022-12-10T02:56:58;10.00;;;7.32;;
41219;SDS011;26951;47.338;9.196;2022-12-10T02:59:48;9.20;;;7.50;;
41219;SDS011;26951;47.338;9.196;2022-12-10T03:02:55;9.32;;;7.35;;
41219;SDS011;26951;47.338;9.196;2022-12-10T03:06:08;10.15;;;7.82;;
41219;SDS011;26951;47.338;9.196;2022-12-10T03:11:57;11.30;;;8.32;;
41219;SDS011;26951;47.338;9.196;2022-12-10T03:14:45;12.15;;;8.90;;
41219;SDS011;26951;47.338;9.196;2022-12-10T03:17:30;11.05;;;8.38;;
41219;SDS011;26951;47.338;9.196;2022-12-10T03:20:16;11.90;;;8.77;;
41219;SDS011;26951;47.338;9.196;2022-12-10T03:23:01;11.52;;;8.15;;
41219;SDS011;26951;47.338;9.196;2022-12-10T03:28:34;9.93;;;7.07;;
41219;SDS011;26951;47.338;9.196;2022-12-10T03:31:24;10.05;;;7.65;;
41219;SDS011;26951;47.338;9.196;2022-12-10T03:34:09;10.48;;;7.47;;
41219;SDS011;26951;47.338;9.196;2022-12-10T03:36:54;9.07;;;7.13;;
41219;SDS011;26951;47.338;9.196;2022-12-10T03:39:38;9.75;;;7.28;;
41219;SDS011;26951;47.338;9.196;2022-12-10T03:42:24;10.80;;;7.78;;
41219;SDS011;26951;47.338;9.196;2022-12-10T03:45:08;11.45;;;7.82;;
41219;SDS011;26951;47.338;9.196;2022-12-10T03:47:53;9.50;;;7.33;;
41219;SDS011;26951;47.338;9.196;2022-12-10T03:50:37;12.05;;;7.90;;
41219;SDS011;26951;47.338;9.196;2022-12-10T03:53:21;9.52;;;7.40;;
41219;SDS011;26951;47.338;9.196;2022-12-10T03:56:05;10.65;;;7.22;;
41219;SDS011;26951;47.338;9.196;2022-12-10T03:58:49;9.90;;;7.65;;
41219;SDS011;26951;47.338;9.196;2022-12-10T04:01:33;9.88;;;7.63;;
41219;SDS011;26951;47.338;9.196;2022-12-10T04:04:17;9.60;;;7.15;;
41219;SDS011;26951;47.338;9.196;2022-12-10T04:07:02;9.93;;;8.32;;
41219;SDS011;26951;47.338;9.196;2022-12-10T04:09:46;9.95;;;8.02;;
41219;SDS011;26951;47.338;9.196;2022-12-10T04:12:31;9.90;;;7.28;;
41219;SDS011;26951;47.338;9.196;2022-12-10T04:15:15;8.63;;;6.90;;
41219;SDS011;26951;47.338;9.196;2022-12-10T04:18:18;8.18;;;6.55;;
41219;SDS011;26951;47.338;9.196;2022-12-10T04:21:02;9.20;;;6.90;;
41219;SDS011;26951;47.338;9.196;2022-12-10T04:24:07;7.40;;;6.05;;
41219;SDS011;26951;47.338;9.196;2022-12-10T04:27:12;7.57;;;5.88;;
41219;SDS011;26951;47.338;9.196;2022-12-10T04:30:04;7.47;;;5.55;;
41219;SDS011;26951;47.338;9.196;2022-12-10T04:32:49;7.93;;;6.00;;
41219;SDS011;26951;47.338;9.196;2022-12-10T04:35:34;8.55;;;6.55;;
41219;SDS011;26951;47.338;9.196;2022-12-10T04:38:18;7.25;;;5.57;;
41219;SDS011;26951;47.338;9.196;2022-12-10T04:41:02;9.75;;;7.03;;
41219;SDS011;26951;47.338;9.196;2022-12-10T04:43:58;8.00;;;6.05;;
41219;SDS011;26951;47.338;9.196;2022-12-10T04:46:43;8.13;;;5.85;;
41219;SDS011;26951;47.338;9.196;2022-12-10T04:49:28;7.60;;;5.70;;
41219;SDS011;26951;47.338;9.196;2022-12-10T04:52:13;7.10;;;5.50;;
41219;SDS011;26951;47.338;9.196;2022-12-10T04:54:59;7.65;;;5.75;;
41219;SDS011;26951;47.338;9.196;2022-12-10T04:57:43;7.10;;;5.70;;
41219;SDS011;26951;47.338;9.196;2022-12-10T05:00:27;8.90;;;6.13;;
41219;SDS011;26951;47.338;9.196;2022-12-10T05:03:11;7.43;;;6.38;;
41219;SDS011;26951;47.338;9.196;2022-12-10T05:05:59;7.95;;;6.07;;
41219;SDS011;26951;47.338;9.196;2022-12-10T05:08:48;8.02;;;6.60;;
41219;SDS011;26951;47.338;9.196;2022-12-10T05:11:32;8.63;;;6.43;;
41219;SDS011;26951;47.338;9.196;2022-12-10T05:14:17;9.43;;;6.90;;
41219;SDS011;26951;47.338;9.196;2022-12-10T05:17:02;9.77;;;7.70;;
41219;SDS011;26951;47.338;9.196;2022-12-10T05:19:46;8.18;;;7.13;;
41219;SDS011;26951;47.338;9.196;2022-12-10T05:22:30;7.38;;;5.70;;
41219;SDS011;26951;47.338;9.196;2022-12-10T05:25:33;6.95;;;5.38;;
41219;SDS011;26951;47.338;9.196;2022-12-10T05:28:37;6.70;;;5.88;;
41219;SDS011;26951;47.338;9.196;2022-12-10T05:31:25;7.10;;;5.25;;
41219;SDS011;26951;47.338;9.196;2022-12-10T05:34:10;5.70;;;5.10;;
41219;SDS011;26951;47.338;9.196;2022-12-10T05:36:55;6.43;;;5.55;;
41219;SDS011;26951;47.338;9.196;2022-12-10T05:39:39;6.47;;;5.60;;
41219;SDS011;26951;47.338;9.196;2022-12-10T05:42:23;6.18;;;5.43;;
41219;SDS011;26951;47.338;9.196;2022-12-10T05:45:07;7.93;;;5.80;;
41219;SDS011;26951;47.338;9.196;2022-12-10T05:47:52;7.18;;;6.22;;
41219;SDS011;26951;47.338;9.196;2022-12-10T05:50:36;8.18;;;6.10;;
41219;SDS011;26951;47.338;9.196;2022-12-10T05:53:20;7.53;;;6.55;;
41219;SDS011;26951;47.338;9.196;2022-12-10T05:56:06;7.57;;;6.05;;
41219;SDS011;26951;47.338;9.196;2022-12-10T05:58:54;8.95;;;6.70;;
41219;SDS011;26951;47.338;9.196;2022-12-10T06:01:41;9.68;;;7.32;;
41219;SDS011;26951;47.338;9.196;2022-12-10T06:04:25;8.88;;;6.43;;
41219;SDS011;26951;47.338;9.196;2022-12-10T06:07:09;9.18;;;6.90;;
41219;SDS011;26951;47.338;9.196;2022-12-10T06:09:53;10.57;;;7.88;;
41219;SDS011;26951;47.338;9.196;2022-12-10T06:12:37;9.50;;;7.75;;
41219;SDS011;26951;47.338;9.196;2022-12-10T06:15:22;10.07;;;7.88;;
41219;SDS011;26951;47.338;9.196;2022-12-10T06:18:07;9.23;;;7.15;;
41219;SDS011;26951;47.338;9.196;2022-12-10T06:20:51;10.45;;;7.80;;
41219;SDS011;26951;47.338;9.196;2022-12-10T06:23:35;10.43;;;7.38;;
41219;SDS011;26951;47.338;9.196;2022-12-10T06:29:08;9.73;;;6.97;;
41219;SDS011;26951;47.338;9.196;2022-12-10T06:31:52;9.55;;;6.82;;
41219;SDS011;26951;47.338;9.196;2022-12-10T06:34:36;9.15;;;7.25;;
41219;SDS011;26951;47.338;9.196;2022-12-10T06:37:21;10.10;;;6.95;;
41219;SDS011;26951;47.338;9.196;2022-12-10T06:40:05;9.27;;;7.07;;
41219;SDS011;26951;47.338;9.196;2022-12-10T06:42:51;10.15;;;6.93;;
41219;SDS011;26951;47.338;9.196;2022-12-10T06:45:39;8.27;;;6.18;;
41219;SDS011;26951;47.338;9.196;2022-12-10T06:48:24;7.05;;;5.80;;
41219;SDS011;26951;47.338;9.196;2022-12-10T06:51:08;7.45;;;5.57;;
41219;SDS011;26951;47.338;9.196;2022-12-10T06:53:52;7.95;;;6.00;;
41219;SDS011;26951;47.338;9.196;2022-12-10T06:56:37;6.25;;;5.38;;
41219;SDS011;26951;47.338;9.196;2022-12-10T06:59:20;7.88;;;5.88;;
41219;SDS011;26951;47.338;9.196;2022-12-10T07:02:04;8.98;;;5.78;;
41219;SDS011;26951;47.338;9.196;2022-12-10T07:04:49;8.75;;;6.32;;
41219;SDS011;26951;47.338;9.196;2022-12-10T07:07:34;5.57;;;4.78;;
41219;SDS011;26951;47.338;9.196;2022-12-10T07:10:19;6.32;;;4.82;;
41219;SDS011;26951;47.338;9.196;2022-12-10T07:13:03;4.65;;;4.13;;
41219;SDS011;26951;47.338;9.196;2022-12-10T07:15:47;5.53;;;4.47;;
41219;SDS011;26951;47.338;9.196;2022-12-10T07:18:31;6.28;;;4.95;;
41219;SDS011;26951;47.338;9.196;2022-12-10T07:21:34;6.53;;;5.22;;
41219;SDS011;26951;47.338;9.196;2022-12-10T07:24:19;5.13;;;4.55;;
41219;SDS011;26951;47.338;9.196;2022-12-10T07:27:04;6.15;;;4.80;;
41219;SDS011;26951;47.338;9.196;2022-12-10T07:29:49;7.35;;;5.20;;
41219;SDS011;26951;47.338;9.196;2022-12-10T07:32:33;6.93;;;4.82;;
41219;SDS011;26951;47.338;9.196;2022-12-10T07:35:17;6.05;;;4.72;;
41219;SDS011;26951;47.338;9.196;2022-12-10T07:38:02;5.05;;;4.28;;
41219;SDS011;26951;47.338;9.196;2022-12-10T07:40:46;7.00;;;5.32;;
41219;SDS011;26951;47.338;9.196;2022-12-10T07:43:30;6.18;;;5.13;;
41219;SDS011;26951;47.338;9.196;2022-12-10T07:46:20;6.57;;;5.18;;
41219;SDS011;26951;47.338;9.196;2022-12-10T07:49:07;7.03;;;5.32;;
41219;SDS011;26951;47.338;9.196;2022-12-10T07:51:51;7.38;;;5.68;;
41219;SDS011;26951;47.338;9.196;2022-12-10T07:54:35;6.15;;;5.38;;
41219;SDS011;26951;47.338;9.196;2022-12-10T07:57:20;8.15;;;6.38;;
41219;SDS011;26951;47.338;9.196;2022-12-10T08:00:04;8.52;;;6.38;;
41219;SDS011;26951;47.338;9.196;2022-12-10T08:02:49;6.30;;;5.43;;
41219;SDS011;26951;47.338;9.196;2022-12-10T08:05:33;8.32;;;5.90;;
41219;SDS011;26951;47.338;9.196;2022-12-10T08:08:17;7.68;;;6.20;;
41219;SDS011;26951;47.338;9.196;2022-12-10T08:11:01;8.82;;;6.78;;
41219;SDS011;26951;47.338;9.196;2022-12-10T08:13:46;13.25;;;9.35;;
41219;SDS011;26951;47.338;9.196;2022-12-10T08:16:31;14.33;;;10.90;;
41219;SDS011;26951;47.338;9.196;2022-12-10T08:19:15;14.30;;;10.05;;
41219;SDS011;26951;47.338;9.196;2022-12-10T08:21:59;12.68;;;8.35;;
41219;SDS011;26951;47.338;9.196;2022-12-10T08:24:43;11.10;;;8.40;;
41219;SDS011;26951;47.338;9.196;2022-12-10T08:27:28;9.93;;;7.70;;
41219;SDS011;26951;47.338;9.196;2022-12-10T08:30:12;9.15;;;7.10;;
41219;SDS011;26951;47.338;9.196;2022-12-10T08:32:56;11.02;;;8.30;;
41219;SDS011;26951;47.338;9.196;2022-12-10T08:35:41;11.68;;;7.90;;
41219;SDS011;26951;47.338;9.196;2022-12-10T08:38:25;10.60;;;8.38;;
41219;SDS011;26951;47.338;9.196;2022-12-10T08:41:10;11.65;;;8.77;;
41219;SDS011;26951;47.338;9.196;2022-12-10T08:43:56;13.63;;;8.73;;
41219;SDS011;26951;47.338;9.196;2022-12-10T08:46:40;11.80;;;8.32;;
41219;SDS011;26951;47.338;9.196;2022-12-10T08:49:25;10.93;;;8.55;;
41219;SDS011;26951;47.338;9.196;2022-12-10T08:52:09;12.13;;;9.07;;
41219;SDS011;26951;47.338;9.196;2022-12-10T08:54:53;12.13;;;8.73;;
41219;SDS011;26951;47.338;9.196;2022-12-10T08:57:37;13.95;;;10.10;;
41219;SDS011;26951;47.338;9.196;2022-12-10T09:00:21;17.45;;;11.63;;
41219;SDS011;26951;47.338;9.196;2022-12-10T09:03:05;20.70;;;12.75;;
41219;SDS011;26951;47.338;9.196;2022-12-10T09:05:49;21.13;;;15.35;;
41219;SDS011;26951;47.338;9.196;2022-12-10T09:08:33;21.00;;;14.38;;
41219;SDS011;26951;47.338;9.196;2022-12-10T09:11:20;24.35;;;14.98;;
41219;SDS011;26951;47.338;9.196;2022-12-10T09:14:09;25.02;;;16.05;;
41219;SDS011;26951;47.338;9.196;2022-12-10T09:16:54;25.25;;;16.05;;
41219;SDS011;26951;47.338;9.196;2022-12-10T09:19:38;23.85;;;14.90;;
41219;SDS011;26951;47.338;9.196;2022-12-10T09:22:22;22.10;;;14.25;;
41219;SDS011;26951;47.338;9.196;2022-12-10T09:25:07;25.27;;;14.52;;
41219;SDS011;26951;47.338;9.196;2022-12-10T09:27:53;22.13;;;14.25;;
41219;SDS011;26951;47.338;9.196;2022-12-10T09:30:38;19.90;;;12.85;;
41219;SDS011;26951;47.338;9.196;2022-12-10T09:33:22;19.75;;;12.48;;
41219;SDS011;26951;47.338;9.196;2022-12-10T09:36:06;21.48;;;12.68;;
41219;SDS011;26951;47.338;9.196;2022-12-10T09:42:00;15.05;;;9.80;;
41219;SDS011;26951;47.338;9.196;2022-12-10T09:51:12;11.05;;;7.97;;
41219;SDS011;26951;47.338;9.196;2022-12-10T09:54:11;12.10;;;7.88;;
41219;SDS011;26951;47.338;9.196;2022-12-10T09:57:06;9.20;;;7.47;;
41219;SDS011;26951;47.338;9.196;2022-12-10T09:59:55;8.40;;;6.65;;
41219;SDS011;26951;47.338;9.196;2022-12-10T10:02:42;11.05;;;7.55;;
41219;SDS011;26951;47.338;9.196;2022-12-10T10:05:28;9.57;;;7.22;;
41219;SDS011;26951;47.338;9.196;2022-12-10T10:08:17;9.45;;;6.80;;
41219;SDS011;26951;47.338;9.196;2022-12-10T10:11:12;9.27;;;6.95;;
41219;SDS011;26951;47.338;9.196;2022-12-10T10:14:03;9.20;;;7.07;;
41219;SDS011;26951;47.338;9.196;2022-12-10T10:16:51;8.57;;;6.30;;
41219;SDS011;26951;47.338;9.196;2022-12-10T10:19:41;10.00;;;7.30;;
41219;SDS011;26951;47.338;9.196;2022-12-10T10:22:27;9.93;;;7.97;;
41219;SDS011;26951;47.338;9.196;2022-12-10T10:25:17;9.23;;;7.40;;
41219;SDS011;26951;47.338;9.196;2022-12-10T10:28:02;9.77;;;7.18;;
41219;SDS011;26951;47.338;9.196;2022-12-10T10:30:47;9.50;;;7.07;;
41219;SDS011;26951;47.338;9.196;2022-12-10T10:33:32;8.30;;;6.35;;
41219;SDS011;26951;47.338;9.196;2022-12-10T10:36:39;9.68;;;6.90;;
41219;SDS011;26951;47.338;9.196;2022-12-10T10:39:31;9.93;;;6.55;;
41219;SDS011;26951;47.338;9.196;2022-12-10T10:42:37;9.13;;;7.35;;
41219;SDS011;26951;47.338;9.196;2022-12-10T10:45:42;8.73;;;7.18;;
41219;SDS011;26951;47.338;9.196;2022-12-10T10:48:31;8.98;;;6.55;;
41219;SDS011;26951;47.338;9.196;2022-12-10T10:53:48;6.88;;;6.05;;
41219;SDS011;26951;47.338;9.196;2022-12-10T10:56:40;6.95;;;5.60;;
41219;SDS011;26951;47.338;9.196;2022-12-10T10:59:30;6.57;;;5.43;;
41219;SDS011;26951;47.338;9.196;2022-12-10T11:02:20;6.18;;;4.88;;
41219;SDS011;26951;47.338;9.196;2022-12-10T11:05:20;6.68;;;5.22;;
41219;SDS011;26951;47.338;9.196;2022-12-10T11:08:13;5.88;;;4.82;;
41219;SDS011;26951;47.338;9.196;2022-12-10T11:14:23;6.00;;;4.80;;
41219;SDS011;26951;47.338;9.196;2022-12-10T11:20:02;5.93;;;4.68;;
41219;SDS011;26951;47.338;9.196;2022-12-10T11:23:01;5.50;;;4.50;;
41219;SDS011;26951;47.338;9.196;2022-12-10T11:29:00;6.75;;;5.47;;
41219;SDS011;26951;47.338;9.196;2022-12-10T11:32:07;7.07;;;5.43;;
41219;SDS011;26951;47.338;9.196;2022-12-10T11:35:04;10.65;;;7.35;;
41219;SDS011;26951;47.338;9.196;2022-12-10T11:40:53;5.60;;;4.43;;
41219;SDS011;26951;47.338;9.196;2022-12-10T11:46:56;6.40;;;5.15;;
41219;SDS011;26951;47.338;9.196;2022-12-10T11:59:05;6.00;;;4.47;;
41219;SDS011;26951;47.338;9.196;2022-12-10T12:05:19;4.72;;;3.70;;
41219;SDS011;26951;47.338;9.196;2022-12-10T12:08:22;5.50;;;4.22;;
41219;SDS011;26951;47.338;9.196;2022-12-10T12:11:35;5.47;;;3.80;;
41219;SDS011;26951;47.338;9.196;2022-12-10T12:17:32;5.50;;;4.20;;
41219;SDS011;26951;47.338;9.196;2022-12-10T12:20:23;5.90;;;4.50;;
41219;SDS011;26951;47.338;9.196;2022-12-10T12:23:33;5.70;;;4.30;;
41219;SDS011;26951;47.338;9.196;2022-12-10T12:26:50;4.72;;;3.72;;
41219;SDS011;26951;47.338;9.196;2022-12-10T12:29:46;4.47;;;3.58;;
41219;SDS011;26951;47.338;9.196;2022-12-10T12:33:02;3.95;;;3.05;;
41219;SDS011;26951;47.338;9.196;2022-12-10T12:36:13;4.57;;;3.35;;
41219;SDS011;26951;47.338;9.196;2022-12-10T12:39:46;4.80;;;3.58;;
41219;SDS011;26951;47.338;9.196;2022-12-10T12:42:22;4.72;;;3.60;;
41219;SDS011;26951;47.338;9.196;2022-12-10T12:45:16;6.35;;;3.63;;
41219;SDS011;26951;47.338;9.196;2022-12-10T12:48:19;5.75;;;4.35;;
41219;SDS011;26951;47.338;9.196;2022-12-10T12:51:09;7.60;;;4.22;;
41219;SDS011;26951;47.338;9.196;2022-12-10T12:54:03;5.50;;;4.10;;
41219;SDS011;26951;47.338;9.196;2022-12-10T13:00:10;6.95;;;5.05;;
41219;SDS011;26951;47.338;9.196;2022-12-10T13:03:07;8.38;;;6.07;;
41219;SDS011;26951;47.338;9.196;2022-12-10T13:09:25;8.45;;;6.25;;
41219;SDS011;26951;47.338;9.196;2022-12-10T13:18:00;9.43;;;6.80;;
41219;SDS011;26951;47.338;9.196;2022-12-10T13:20:55;12.18;;;8.40;;
41219;SDS011;26951;47.338;9.196;2022-12-10T13:24:11;11.60;;;7.75;;
41219;SDS011;26951;47.338;9.196;2022-12-10T13:33:19;9.38;;;7.30;;
41219;SDS011;26951;47.338;9.196;2022-12-10T13:36:04;10.93;;;7.18;;
41219;SDS011;26951;47.338;9.196;2022-12-10T13:38:56;11.20;;;7.68;;
41219;SDS011;26951;47.338;9.196;2022-12-10T13:51:20;11.20;;;7.80;;
41219;SDS011;26951;47.338;9.196;2022-12-10T13:54:19;11.10;;;8.20;;
41219;SDS011;26951;47.338;9.196;2022-12-10T14:06:18;12.02;;;7.70;;
41219;SDS011;26951;47.338;9.196;2022-12-10T14:09:06;10.55;;;7.35;;
41219;SDS011;26951;47.338;9.196;2022-12-10T14:12:13;9.60;;;6.90;;
41219;SDS011;26951;47.338;9.196;2022-12-10T14:15:01;10.63;;;7.75;;
41219;SDS011;26951;47.338;9.196;2022-12-10T14:20:47;9.70;;;6.70;;
41219;SDS011;26951;47.338;9.196;2022-12-10T14:23:35;9.77;;;6.28;;
41219;SDS011;26951;47.338;9.196;2022-12-10T14:26:27;7.82;;;5.85;;
41219;SDS011;26951;47.338;9.196;2022-12-10T14:29:17;7.07;;;5.05;;
41219;SDS011;26951;47.338;9.196;2022-12-10T14:32:04;8.15;;;5.65;;
41219;SDS011;26951;47.338;9.196;2022-12-10T14:34:50;6.78;;;5.00;;
41219;SDS011;26951;47.338;9.196;2022-12-10T14:37:39;7.80;;;5.93;;
41219;SDS011;26951;47.338;9.196;2022-12-10T14:40:37;7.28;;;5.78;;
41219;SDS011;26951;47.338;9.196;2022-12-10T14:43:44;9.18;;;6.10;;
41219;SDS011;26951;47.338;9.196;2022-12-10T14:46:28;9.60;;;6.80;;
41219;SDS011;26951;47.338;9.196;2022-12-10T14:49:16;9.10;;;6.47;;
41219;SDS011;26951;47.338;9.196;2022-12-10T14:52:10;9.73;;;6.65;;
41219;SDS011;26951;47.338;9.196;2022-12-10T14:54:59;8.43;;;6.60;;
41219;SDS011;26951;47.338;9.196;2022-12-10T14:57:44;8.68;;;6.05;;
41219;SDS011;26951;47.338;9.196;2022-12-10T15:00:33;8.63;;;6.25;;
41219;SDS011;26951;47.338;9.196;2022-12-10T15:03:22;8.13;;;5.97;;
41219;SDS011;26951;47.338;9.196;2022-12-10T15:06:13;6.13;;;4.63;;
41219;SDS011;26951;47.338;9.196;2022-12-10T15:09:02;5.78;;;4.53;;
41219;SDS011;26951;47.338;9.196;2022-12-10T15:11:54;6.13;;;4.63;;
41219;SDS011;26951;47.338;9.196;2022-12-10T15:14:39;5.80;;;4.20;;
41219;SDS011;26951;47.338;9.196;2022-12-10T15:17:33;7.20;;;4.90;;
41219;SDS011;26951;47.338;9.196;2022-12-10T15:20:24;6.72;;;4.45;;
41219;SDS011;26951;47.338;9.196;2022-12-10T15:26:18;7.63;;;4.97;;
41219;SDS011;26951;47.338;9.196;2022-12-10T15:32:14;8.52;;;5.47;;
41219;SDS011;26951;47.338;9.196;2022-12-10T15:35:04;9.25;;;6.50;;
41219;SDS011;26951;47.338;9.196;2022-12-10T15:37:55;9.88;;;6.13;;
41219;SDS011;26951;47.338;9.196;2022-12-10T15:40:42;7.78;;;5.72;;
41219;SDS011;26951;47.338;9.196;2022-12-10T15:43:28;11.50;;;7.47;;
41219;SDS011;26951;47.338;9.196;2022-12-10T15:46:17;8.82;;;6.05;;
41219;SDS011;26951;47.338;9.196;2022-12-10T15:49:02;7.93;;;6.07;;
41219;SDS011;26951;47.338;9.196;2022-12-10T15:51:46;9.10;;;6.43;;
41219;SDS011;26951;47.338;9.196;2022-12-10T15:54:38;8.40;;;6.50;;
41219;SDS011;26951;47.338;9.196;2022-12-10T15:57:25;7.50;;;5.40;;
41219;SDS011;26951;47.338;9.196;2022-12-10T16:00:28;8.18;;;5.75;;
41219;SDS011;26951;47.338;9.196;2022-12-10T16:03:13;8.25;;;6.07;;
41219;SDS011;26951;47.338;9.196;2022-12-10T16:05:59;9.07;;;5.97;;
41219;SDS011;26951;47.338;9.196;2022-12-10T16:08:43;9.38;;;6.13;;
41219;SDS011;26951;47.338;9.196;2022-12-10T16:11:27;9.95;;;6.28;;
41219;SDS011;26951;47.338;9.196;2022-12-10T16:14:12;8.30;;;6.22;;
41219;SDS011;26951;47.338;9.196;2022-12-10T16:16:56;7.03;;;5.75;;
41219;SDS011;26951;47.338;9.196;2022-12-10T16:19:40;8.77;;;6.57;;
41219;SDS011;26951;47.338;9.196;2022-12-10T16:22:24;9.02;;;6.53;;
41219;SDS011;26951;47.338;9.196;2022-12-10T16:25:09;9.60;;;6.53;;
41219;SDS011;26951;47.338;9.196;2022-12-10T16:27:54;9.55;;;6.40;;
41219;SDS011;26951;47.338;9.196;2022-12-10T16:30:46;9.98;;;6.97;;
41219;SDS011;26951;47.338;9.196;2022-12-10T16:33:35;9.90;;;7.30;;
41219;SDS011;26951;47.338;9.196;2022-12-10T16:36:20;8.32;;;6.40;;
41219;SDS011;26951;47.338;9.196;2022-12-10T16:39:04;11.32;;;6.72;;
41219;SDS011;26951;47.338;9.196;2022-12-10T16:41:52;9.02;;;6.38;;
41219;SDS011;26951;47.338;9.196;2022-12-10T16:44:38;9.55;;;6.40;;
41219;SDS011;26951;47.338;9.196;2022-12-10T16:47:22;9.35;;;6.95;;
41219;SDS011;26951;47.338;9.196;2022-12-10T16:50:07;9.15;;;6.65;;
41219;SDS011;26951;47.338;9.196;2022-12-10T16:52:51;9.68;;;6.90;;
41219;SDS011;26951;47.338;9.196;2022-12-10T16:55:37;8.20;;;5.65;;
41219;SDS011;26951;47.338;9.196;2022-12-10T16:58:22;10.25;;;6.88;;
41219;SDS011;26951;47.338;9.196;2022-12-10T17:01:18;9.13;;;6.50;;
41219;SDS011;26951;47.338;9.196;2022-12-10T17:07:55;8.65;;;6.07;;
41219;SDS011;26951;47.338;9.196;2022-12-10T17:10:39;9.75;;;6.90;;
41219;SDS011;26951;47.338;9.196;2022-12-10T17:13:42;11.20;;;7.00;;
41219;SDS011;26951;47.338;9.196;2022-12-10T17:19:42;10.50;;;7.13;;
41219;SDS011;26951;47.338;9.196;2022-12-10T17:22:27;11.65;;;6.95;;
41219;SDS011;26951;47.338;9.196;2022-12-10T17:25:11;9.98;;;6.55;;
41219;SDS011;26951;47.338;9.196;2022-12-10T17:27:56;9.75;;;5.75;;
41219;SDS011;26951;47.338;9.196;2022-12-10T17:30:41;11.55;;;7.63;;
41219;SDS011;26951;47.338;9.196;2022-12-10T17:33:26;8.88;;;6.25;;
41219;SDS011;26951;47.338;9.196;2022-12-10T17:36:14;8.02;;;5.88;;
41219;SDS011;26951;47.338;9.196;2022-12-10T17:38:58;8.80;;;6.75;;
41219;SDS011;26951;47.338;9.196;2022-12-10T17:41:42;9.25;;;6.60;;
41219;SDS011;26951;47.338;9.196;2022-12-10T17:44:27;10.45;;;6.72;;
41219;SDS011;26951;47.338;9.196;2022-12-10T17:47:15;11.23;;;6.75;;
41219;SDS011;26951;47.338;9.196;2022-12-10T17:50:08;9.55;;;5.95;;
41219;SDS011;26951;47.338;9.196;2022-12-10T17:53:07;9.32;;;6.53;;
41219;SDS011;26951;47.338;9.196;2022-12-10T17:55:58;9.82;;;6.15;;
41219;SDS011;26951;47.338;9.196;2022-12-10T17:58:43;9.75;;;6.07;;
41219;SDS011;26951;47.338;9.196;2022-12-10T18:01:28;10.25;;;6.20;;
41219;SDS011;26951;47.338;9.196;2022-12-10T18:04:14;10.02;;;6.43;;
41219;SDS011;26951;47.338;9.196;2022-12-10T18:06:58;10.40;;;6.75;;
41219;SDS011;26951;47.338;9.196;2022-12-10T18:09:43;8.05;;;6.13;;
41219;SDS011;26951;47.338;9.196;2022-12-10T18:12:27;9.45;;;7.63;;
41219;SDS011;26951;47.338;9.196;2022-12-10T18:15:12;9.70;;;6.22;;
41219;SDS011;26951;47.338;9.196;2022-12-10T18:17:57;9.10;;;6.78;;
41219;SDS011;26951;47.338;9.196;2022-12-10T18:23:28;11.37;;;7.07;;
41219;SDS011;26951;47.338;9.196;2022-12-10T18:26:14;10.30;;;6.78;;
41219;SDS011;26951;47.338;9.196;2022-12-10T18:29:00;9.48;;;6.50;;
41219;SDS011;26951;47.338;9.196;2022-12-10T18:31:45;9.48;;;6.32;;
41219;SDS011;26951;47.338;9.196;2022-12-10T18:34:30;8.68;;;6.20;;
41219;SDS011;26951;47.338;9.196;2022-12-10T18:37:14;7.00;;;5.28;;
41219;SDS011;26951;47.338;9.196;2022-12-10T18:39:58;8.70;;;6.35;;
41219;SDS011;26951;47.338;9.196;2022-12-10T18:42:42;7.72;;;5.38;;
41219;SDS011;26951;47.338;9.196;2022-12-10T18:45:26;7.43;;;5.60;;
41219;SDS011;26951;47.338;9.196;2022-12-10T18:48:10;7.13;;;5.20;;
41219;SDS011;26951;47.338;9.196;2022-12-10T18:50:54;9.38;;;6.15;;
41219;SDS011;26951;47.338;9.196;2022-12-10T18:53:40;6.82;;;5.55;;